createdAt,value
2019-04-25T00:02:07.753Z,14.60
2019-04-25T00:05:31.563Z,21.03
2019-04-25T00:08:57.201Z,21.73
2019-04-25T00:12:24.625Z,23.57
2019-04-25T00:15:48.485Z,16.63
2019-04-25T00:19:12.608Z,17.07
2019-04-25T00:22:47.773Z,12.73
2019-04-25T00:26:16.248Z,17.20
2019-04-25T00:29:40.981Z,18.03
2019-04-25T00:33:06.885Z,15.77
2019-04-25T00:36:31.866Z,20.07
2019-04-25T00:39:55.703Z,19.03
2019-04-25T00:43:21.372Z,17.57
2019-04-25T00:46:48.767Z,22.80
2019-04-25T00:50:12.003Z,22.50
2019-04-25T00:53:35.968Z,18.07
2019-04-25T00:56:59.728Z,21.47
2019-04-25T01:00:41.583Z,21.97
2019-04-25T01:04:06.070Z,17.30
2019-04-25T01:07:32.389Z,18.47
2019-04-25T01:10:56.745Z,17.63
2019-04-25T01:14:21.819Z,24.40
2019-04-25T01:17:45.740Z,23.67
2019-04-25T01:21:10.703Z,30.53
2019-04-25T01:24:34.963Z,23.03
2019-04-25T01:27:58.735Z,20.83
2019-04-25T01:31:24.934Z,22.83
2019-04-25T01:34:50.584Z,24.53
2019-04-25T01:38:29.271Z,24.47
2019-04-25T01:42:09.730Z,22.80
2019-04-25T01:45:35.097Z,25.47
2019-04-25T01:48:58.998Z,30.37
2019-04-25T01:52:23.555Z,27.30
2019-04-25T01:55:56.011Z,26.27
2019-04-25T01:59:13.516Z,24.40
2019-04-25T02:02:39.584Z,22.87
2019-04-25T02:06:04.973Z,21.87
2019-04-25T02:09:29.283Z,20.40
2019-04-25T02:13:00.795Z,25.87
2019-04-25T02:16:24.826Z,20.03
2019-04-25T02:19:49.003Z,31.03
2019-04-25T02:23:14.112Z,28.63
2019-04-25T02:26:38.170Z,23.17
2019-04-25T02:30:03.553Z,27.80
2019-04-25T02:33:27.471Z,18.27
2019-04-25T02:36:55.480Z,22.47
2019-04-25T02:40:20.354Z,24.60
2019-04-25T02:43:45.210Z,21.87
2019-04-25T02:47:25.716Z,25.43
2019-04-25T02:51:05.470Z,23.47
2019-04-25T02:54:28.627Z,25.67
2019-04-25T02:57:54.132Z,21.37
2019-04-25T03:01:22.705Z,22.63
2019-04-25T03:04:44.751Z,22.77
2019-04-25T03:08:10.514Z,24.50
2019-04-25T03:11:34.697Z,20.17
2019-04-25T03:15:00.058Z,26.33
2019-04-25T03:18:25.686Z,19.13
2019-04-25T03:21:51.171Z,23.03
2019-04-25T03:25:17.462Z,21.00
2019-04-25T03:28:40.549Z,21.83
2019-04-25T03:32:09.341Z,22.73
2019-04-25T03:35:29.951Z,20.67
2019-04-25T03:38:54.170Z,25.40
2019-04-25T03:42:18.135Z,25.47
2019-04-25T03:45:43.183Z,19.93
2019-04-25T03:49:07.690Z,27.03
2019-04-25T03:52:33.023Z,24.40
2019-04-25T03:55:57.000Z,20.77
2019-04-25T03:59:20.933Z,30.47
2019-04-25T04:02:45.705Z,21.83
2019-04-25T04:06:10.201Z,23.93
2019-04-25T04:09:34.097Z,20.73
2019-04-25T04:12:58.338Z,20.77
2019-04-25T04:16:23.837Z,18.13
2019-04-25T04:19:53.658Z,24.00
2019-04-25T04:23:23.196Z,20.80
2019-04-25T04:26:48.686Z,19.60
2019-04-25T04:30:14.164Z,21.40
2019-04-25T04:33:38.338Z,19.07
2019-04-25T04:37:03.604Z,19.20
2019-04-25T04:40:27.693Z,19.30
2019-04-25T04:43:51.463Z,20.30
2019-04-25T04:47:15.499Z,14.53
2019-04-25T04:50:39.650Z,24.23
2019-04-25T04:54:03.558Z,21.87
2019-04-25T04:57:33.296Z,21.43
2019-04-25T05:00:53.688Z,17.83
2019-04-25T05:04:19.642Z,19.00
2019-04-25T05:07:45.282Z,18.47
2019-04-25T05:11:09.285Z,18.20
2019-04-25T05:14:33.716Z,20.27
2019-04-25T05:17:57.861Z,16.37
2019-04-25T05:21:22.587Z,24.83
2019-04-25T05:24:46.645Z,28.60
2019-04-25T05:28:10.351Z,19.90
2019-04-25T05:31:35.845Z,17.60
2019-04-25T05:34:59.555Z,19.53
2019-04-25T05:38:24.335Z,29.20
2019-04-25T05:41:50.443Z,26.30
2019-04-25T05:45:16.057Z,18.83
2019-04-25T05:48:41.075Z,23.17
2019-04-25T05:52:04.793Z,21.53
2019-04-25T05:55:28.578Z,29.27
2019-04-25T05:58:53.218Z,29.03
2019-04-25T06:02:17.898Z,24.13
2019-04-25T06:05:43.245Z,21.30
2019-04-25T06:09:21.894Z,23.47
2019-04-25T06:13:05.665Z,15.43
2019-04-25T06:16:31.150Z,16.13
2019-04-25T06:19:56.563Z,19.57
2019-04-25T06:23:38.483Z,25.43
2019-04-25T06:27:15.724Z,18.83
2019-04-25T06:30:39.715Z,21.50
2019-04-25T06:34:04.590Z,16.53
2019-04-25T06:37:29.220Z,16.87
2019-04-25T06:40:53.596Z,17.27
2019-04-25T06:44:31.385Z,17.33
2019-04-25T06:48:05.230Z,23.13
2019-04-25T06:51:47.431Z,21.13
2019-04-25T06:55:11.465Z,27.03
2019-04-25T06:58:36.711Z,24.47
2019-04-25T07:02:00.756Z,16.03
2019-04-25T07:05:32.432Z,13.83
2019-04-25T07:08:50.358Z,25.27
2019-04-25T07:12:16.986Z,17.83
2019-04-25T07:15:41.460Z,16.27
2019-04-25T07:19:06.067Z,18.67
2019-04-25T07:22:29.843Z,19.03
2019-04-25T07:25:55.343Z,22.50
2019-04-25T07:29:26.974Z,18.27
2019-04-25T07:32:53.988Z,16.50
2019-04-25T07:36:18.046Z,12.80
2019-04-25T07:39:41.914Z,20.77
2019-04-25T07:43:05.827Z,19.50
2019-04-25T07:46:29.843Z,16.60
2019-04-25T07:49:54.254Z,24.57
2019-04-25T07:53:18.436Z,19.37
2019-04-25T07:56:43.751Z,23.53
2019-04-25T08:00:11.020Z,17.77
2019-04-25T08:03:35.289Z,14.93
2019-04-25T08:06:59.197Z,19.00
2019-04-25T08:10:25.082Z,21.20
2019-04-25T08:13:57.063Z,17.23
2019-04-25T08:17:39.921Z,17.25
2019-04-25T08:21:05.010Z,17.93
2019-04-25T08:24:30.772Z,27.03
2019-04-25T08:27:55.243Z,23.20
2019-04-25T08:31:19.316Z,114.97
2019-04-25T08:34:44.643Z,23.80
2019-04-25T08:38:08.823Z,18.63
2019-04-25T08:41:34.840Z,20.33
2019-04-25T08:44:58.071Z,19.97
2019-04-25T08:48:23.520Z,19.80
2019-04-25T08:51:49.035Z,18.80
2019-04-25T08:55:14.533Z,21.63
2019-04-25T08:59:03.943Z,28.03
2019-04-25T09:02:38.704Z,19.60
2019-04-25T09:06:03.544Z,21.03
2019-04-25T09:09:27.637Z,15.33
2019-04-25T09:12:51.555Z,18.47
2019-04-25T09:16:16.665Z,24.40
2019-04-25T09:19:40.454Z,18.70
2019-04-25T09:23:04.928Z,22.67
2019-04-25T09:26:28.928Z,20.47
2019-04-25T09:29:54.194Z,27.37
2019-04-25T09:33:18.319Z,18.53
2019-04-25T09:36:43.577Z,14.67
2019-04-25T09:40:15.159Z,19.23
2019-04-25T09:43:40.330Z,22.63
2019-04-25T09:47:04.682Z,19.57
2019-04-25T09:50:43.868Z,13.40
2019-04-25T09:54:27.790Z,18.03
2019-04-25T09:58:05.073Z,16.50
2019-04-25T10:01:29.122Z,17.87
2019-04-25T10:04:52.975Z,18.03
2019-04-25T10:08:16.795Z,19.83
2019-04-25T10:11:41.723Z,22.30
2019-04-25T10:15:30.174Z,21.70
2019-04-25T10:18:54.045Z,18.37
2019-04-25T10:22:18.055Z,53.00
2019-04-25T10:25:43.845Z,15.10
2019-04-25T10:29:07.743Z,15.83
2019-04-25T10:32:33.548Z,19.23
2019-04-25T10:36:00.776Z,40.10
2019-04-25T10:39:23.045Z,17.03
2019-04-25T10:42:49.064Z,19.30
2019-04-25T10:46:14.158Z,20.83
2019-04-25T10:49:38.328Z,21.43
2019-04-25T10:53:03.938Z,38.90
2019-04-25T10:56:28.013Z,19.17
2019-04-25T11:00:00.984Z,22.27
2019-04-25T11:03:31.110Z,22.30
2019-04-25T11:06:55.294Z,15.10
2019-04-25T11:10:19.943Z,20.17
2019-04-25T11:13:44.339Z,14.80
2019-04-25T11:17:09.383Z,16.83
2019-04-25T11:20:33.883Z,21.10
2019-04-25T11:23:57.882Z,13.93
2019-04-25T11:27:21.812Z,14.87
2019-04-25T11:30:47.586Z,14.30
2019-04-25T11:34:13.614Z,17.83
2019-04-25T11:37:37.487Z,14.93
2019-04-25T11:41:13.996Z,13.47
2019-04-25T11:44:38.035Z,12.47
2019-04-25T11:48:02.394Z,14.27
2019-04-25T11:51:26.110Z,13.17
2019-04-25T11:54:50.090Z,14.53
2019-04-25T11:58:14.330Z,15.67
2019-04-25T12:01:49.883Z,17.73
2019-04-25T12:05:15.112Z,10.97
2019-04-25T12:08:39.204Z,18.33
2019-04-25T12:12:03.563Z,11.33
2019-04-25T12:15:28.782Z,16.10
2019-04-25T12:18:55.292Z,17.53
2019-04-25T12:22:18.815Z,14.03
2019-04-25T12:25:45.322Z,14.40
2019-04-25T12:29:08.865Z,16.00
2019-04-25T12:32:35.038Z,12.93
2019-04-25T12:35:58.950Z,18.43
2019-04-25T12:39:24.264Z,14.03
2019-04-25T12:42:48.594Z,14.93
2019-04-25T12:46:13.942Z,16.40
2019-04-25T12:49:37.768Z,16.37
2019-04-25T12:53:01.650Z,13.47
2019-04-25T12:56:25.631Z,17.63
2019-04-25T12:59:49.498Z,13.87
2019-04-25T13:03:14.304Z,18.53
2019-04-25T13:06:38.495Z,14.37
2019-04-25T13:10:02.620Z,15.40
2019-04-25T13:13:26.368Z,9.27
2019-04-25T13:16:50.246Z,11.67
2019-04-25T13:20:14.431Z,11.07
2019-04-25T13:23:38.218Z,13.03
2019-04-25T13:27:14.205Z,12.10
2019-04-25T13:31:01.514Z,12.50
2019-04-25T13:34:34.137Z,12.07
2019-04-25T13:37:47.521Z,12.63
2019-04-25T13:41:11.481Z,10.10
2019-04-25T13:44:35.662Z,10.77
2019-04-25T13:47:59.661Z,16.07
2019-04-25T13:51:24.632Z,7.90
2019-04-25T13:54:48.871Z,13.13
2019-04-25T13:58:14.382Z,11.63
2019-04-25T14:01:38.500Z,12.07
2019-04-25T14:05:05.154Z,14.27
2019-04-25T14:08:33.552Z,17.30
2019-04-25T14:11:57.775Z,13.40
2019-04-25T14:15:24.903Z,11.70
2019-04-25T14:19:05.526Z,11.97
2019-04-25T14:22:30.384Z,15.10
2019-04-25T14:25:56.262Z,12.20
2019-04-25T14:29:21.457Z,10.50
2019-04-25T14:32:46.564Z,8.17
2019-04-25T14:36:10.579Z,11.30
2019-04-25T14:39:34.646Z,12.63
2019-04-25T14:42:58.660Z,9.13
2019-04-25T14:46:23.459Z,12.93
2019-04-25T14:49:47.643Z,11.57
2019-04-25T14:53:11.581Z,11.40
2019-04-25T14:56:46.005Z,14.23
2019-04-25T15:00:14.740Z,14.30
2019-04-25T15:03:38.719Z,19.63
2019-04-25T15:07:02.538Z,15.43
2019-04-25T15:10:26.640Z,8.93
2019-04-25T15:13:50.694Z,17.23
2019-04-25T15:17:14.969Z,10.47
2019-04-25T15:20:39.179Z,9.90
2019-04-25T15:24:03.010Z,17.63
2019-04-25T15:27:26.906Z,10.50
2019-04-25T15:30:51.189Z,11.77
2019-04-25T15:34:15.701Z,12.30
2019-04-25T15:37:44.295Z,20.23
2019-04-25T15:41:12.376Z,11.40
2019-04-25T15:44:50.090Z,9.80
2019-04-25T15:48:14.032Z,12.40
2019-04-25T15:51:38.243Z,12.03
2019-04-25T15:55:07.590Z,14.60
2019-04-25T15:58:27.973Z,13.40
2019-04-25T16:01:51.855Z,13.17
2019-04-25T16:05:16.138Z,11.83
2019-04-25T16:08:40.113Z,10.20
2019-04-25T16:12:04.238Z,15.13
2019-04-25T16:15:28.998Z,10.83
2019-04-25T16:18:52.965Z,9.53
2019-04-25T16:22:16.963Z,10.77
2019-04-25T16:25:41.276Z,9.33
2019-04-25T16:29:05.548Z,10.57
2019-04-25T16:32:30.422Z,15.50
2019-04-25T16:35:54.435Z,20.67
2019-04-25T16:39:19.988Z,9.40
2019-04-25T16:42:43.958Z,18.43
2019-04-25T16:46:07.891Z,16.07
2019-04-25T16:49:32.571Z,12.40
2019-04-25T16:52:56.513Z,11.27
2019-04-25T16:56:20.667Z,11.90
2019-04-25T16:59:44.586Z,9.83
2019-04-25T17:03:08.553Z,11.27
2019-04-25T17:06:33.789Z,10.63
2019-04-25T17:09:57.941Z,11.37
2019-04-25T17:13:22.028Z,14.77
2019-04-25T17:17:02.627Z,15.30
2019-04-25T17:20:28.135Z,15.43
2019-04-25T17:23:52.289Z,20.23
2019-04-25T17:27:17.713Z,16.60
2019-04-25T17:30:44.097Z,12.07
2019-04-25T17:34:26.355Z,10.33
2019-04-25T17:37:51.984Z,18.80
2019-04-25T17:41:16.043Z,13.50
2019-04-25T17:44:40.573Z,22.63
2019-04-25T17:48:05.045Z,22.33
2019-04-25T17:51:30.186Z,15.70
2019-04-25T17:54:54.663Z,22.37
2019-04-25T17:58:18.416Z,19.97
2019-04-25T18:01:42.363Z,27.50
2019-04-25T18:05:07.021Z,21.90
2019-04-25T18:08:30.756Z,33.30
2019-04-25T18:11:54.674Z,28.10
2019-04-25T18:15:37.645Z,36.23
2019-04-25T18:19:03.878Z,29.37
2019-04-25T18:22:41.323Z,28.77
2019-04-25T18:26:09.769Z,24.50
2019-04-25T18:29:33.782Z,27.30
2019-04-25T18:33:10.009Z,30.47
2019-04-25T18:36:36.129Z,65.03
2019-04-25T18:40:02.454Z,24.40
2019-04-25T18:43:28.040Z,29.23
2019-04-25T18:46:52.586Z,50.23
2019-04-25T18:50:18.157Z,36.73
2019-04-25T18:53:47.381Z,29.90
2019-04-25T18:57:13.190Z,30.47
2019-04-25T19:00:47.825Z,34.87
2019-04-25T19:04:16.807Z,33.83
2019-04-25T19:07:41.502Z,48.57
2019-04-25T19:11:07.047Z,46.17
2019-04-25T19:14:30.890Z,40.83
2019-04-25T19:17:55.615Z,31.87
2019-04-25T19:21:21.127Z,36.07
2019-04-25T19:24:48.699Z,43.87
2019-04-25T19:28:13.320Z,36.57
2019-04-25T19:31:38.601Z,36.07
2019-04-25T19:35:03.114Z,35.93
2019-04-25T19:38:27.384Z,32.80
2019-04-25T19:42:11.337Z,42.53
2019-04-25T19:45:35.501Z,35.03
2019-04-25T19:48:59.822Z,33.10
2019-04-25T19:52:23.648Z,33.50
2019-04-25T19:55:47.832Z,37.50
2019-04-25T19:59:11.734Z,39.60
2019-04-25T20:02:42.927Z,39.83
2019-04-25T20:06:20.685Z,41.53
2019-04-25T20:09:49.229Z,44.67
2019-04-25T20:13:14.435Z,40.00
2019-04-25T20:16:45.690Z,42.87
2019-04-25T20:20:10.227Z,42.70
2019-04-25T20:23:34.771Z,46.73
2019-04-25T20:26:59.195Z,39.03
2019-04-25T20:30:23.616Z,36.60
2019-04-25T20:34:00.194Z,36.57
2019-04-25T20:37:13.443Z,46.90
2019-04-25T20:40:37.214Z,48.57
2019-04-25T20:44:01.136Z,51.60
2019-04-25T20:47:25.118Z,46.07
2019-04-25T20:50:49.106Z,37.40
2019-04-25T20:54:12.974Z,39.90
2019-04-25T20:57:36.984Z,44.57
2019-04-25T21:01:02.658Z,34.60
2019-04-25T21:04:44.377Z,34.23
2019-04-25T21:08:08.888Z,33.83
2019-04-25T21:11:32.876Z,28.17
2019-04-25T21:15:01.332Z,45.17
2019-04-25T21:18:26.866Z,41.73
2019-04-25T21:21:51.812Z,41.27
2019-04-25T21:25:16.175Z,35.60
2019-04-25T21:28:40.157Z,39.90
2019-04-25T21:32:04.648Z,37.70
2019-04-25T21:35:28.640Z,41.70
2019-04-25T21:38:53.597Z,38.60
2019-04-25T21:42:25.762Z,42.67
2019-04-25T21:45:50.300Z,41.00
2019-04-25T21:49:14.860Z,40.50
2019-04-25T21:52:39.338Z,43.70
2019-04-25T21:56:03.972Z,30.97
2019-04-25T21:59:28.192Z,41.90
2019-04-25T22:02:52.549Z,40.93
2019-04-25T22:06:17.889Z,40.60
2019-04-25T22:09:42.104Z,45.70
2019-04-25T22:13:16.364Z,36.97
2019-04-25T22:16:32.442Z,51.13
2019-04-25T22:19:56.780Z,43.07
2019-04-25T22:23:21.807Z,47.40
2019-04-25T22:26:47.487Z,38.50
2019-04-25T22:30:13.468Z,53.80
2019-04-25T22:33:45.443Z,45.17
2019-04-25T22:37:09.839Z,43.40
2019-04-25T22:40:34.628Z,44.53
2019-04-25T22:43:59.500Z,51.53
2019-04-25T22:47:24.861Z,42.07
2019-04-25T22:50:48.716Z,40.67
2019-04-25T22:54:12.710Z,41.73
2019-04-25T22:57:36.698Z,41.37
2019-04-25T23:01:01.760Z,38.33
2019-04-25T23:04:30.745Z,33.20
2019-04-25T23:07:54.703Z,37.80
2019-04-25T23:11:18.926Z,44.40
2019-04-25T23:14:43.186Z,36.00
2019-04-25T23:18:07.210Z,45.13
2019-04-25T23:21:31.359Z,41.83
2019-04-25T23:24:57.090Z,53.83
2019-04-25T23:28:21.904Z,42.33
2019-04-25T23:31:46.052Z,45.50
2019-04-25T23:35:24.892Z,49.40
2019-04-25T23:38:36.011Z,52.53
2019-04-25T23:42:00.123Z,44.20
2019-04-25T23:45:23.933Z,49.17
2019-04-25T23:48:47.986Z,51.77
2019-04-25T23:52:12.933Z,49.23
2019-04-25T23:55:36.883Z,43.10
2019-04-25T23:59:00.799Z,40.23
